Tiempo atmosférico en la estación meteorológica de Ramales de la Victoria, Cantabria (80 m.)



Fecha
DESCASC
Temp. máxima en grados centígrados (hora)
DESCASC
Temp. mínima en grados centígrados (hora)
DESCASC
Temp. media en grados centígrados
DESCASC
Racha de viento máxima en m/sg (hora)
DESCASC
Velocidad máxima media en intervalos de 10 minutos(hora)
DESCASC
Precipitaciones diarias en mm
DESCASC
Precipitaciones de 00:00 a 06:00 en mm
DESCASC
Precipitaciones de 06:00 a 12:00 en mm
DESCASC
Precipitaciones de 12:00 a 18:00 en mm
DESCASC
Precipitaciones de 18:00 a 24:00 en mm
DESCASC
27-10-2020 19.7 (13:20) 7.9 (02:50) 13.8 11.39 (17:20) 5.28 (16:00) 0 0 0 0 0
26-10-2020 17 (15:10) 6.1 (03:50) 11.5 10 (13:00) 4.72 (13:00) 0.2 0 0 0 0.2
25-10-2020 19.5 (00:30) 9.1 (23:59) 14.3 23.61 (01:40) 9.17 (01:40) 5.8 0 0 4.4 1.4
24-10-2020 19.5 (15:20) 6.3 (00:00) 12.9 19.17 (23:40) 7.78 (22:30) 0 0 0 0 0
23-10-2020 18 (14:00) 10.5 (00:00) 14.3 6.11 (14:30) 2.5 (14:30) 0.4 0.2 0 0.2 0
22-10-2020 20.4 (16:40) 11.5 (00:00) 15.9 10 (04:00) 3.06 (06:20) 0.2 0 0 0.2 0
21-10-2020 21.7 (12:50) 12.3 (00:00) 17 20.28 (00:30) 6.94 (00:30) 4 3.6 0 0.4 0
20-10-2020 22.8 (00:50) 17.1 (00:00) 19.9 19.72 (21:10) 8.33 (22:00) 8.6 0 1 0.6 7
19-10-2020 25.5 (16:20) 7.7 (00:00) 16.6 15.83 (13:30) 5.56 (12:30) 0 0 0 0 0
18-10-2020 21.8 (16:40) 5.6 (00:00) 13.7 4.17 (16:50) 2.5 (17:00) 0 0 0 0 0
17-10-2020 19 (15:30) 4.8 (00:00) 11.9 4.17 (16:40) 2.22 (16:40) 0 0 0 0 0
16-10-2020 14.4 (17:20) 5.9 (00:00) 10.1 2.5 (10:50) 1.11 (10:50) 0.2 0.2 0 0 0
15-10-2020 11.7 (14:40) 7.6 (00:00) 9.6 6.39 (10:10) 2.22 (10:10) 18.6 4.4 5.4 6.4 2.4
14-10-2020 13.1 (15:20) 10.3 (00:00) 11.7 6.11 (15:20) 2.78 (12:50) 50 22.4 7.2 14.2 6.2
13-10-2020 16.1 (01:30) 11.2 (00:00) 13.7 6.39 (16:20) 2.78 (00:50) 23.4 7 5.4 2.8 8.2
12-10-2020 18.3 (15:50) 10.5 (00:00) 14.4 7.22 (14:30) 3.06 (14:30) 6.6 1 0.2 0 5.4
11-10-2020 14.6 (13:30) 10.6 (00:00) 12.6 7.5 (14:30) 3.33 (16:00) 7.4 0.2 1.6 1.8 3.8
10-10-2020 16.9 (14:30) 12.3 (00:00) 14.6 5 (19:30) 2.22 (19:30) 13.6 3.6 4.6 2 3.4
09-10-2020 18.9 (14:00) 15.2 (00:00) 17 2.78 (15:40) 1.39 (17:00) 0.4 0.4 0 0 0
08-10-2020 22.7 (14:20) 12.4 (00:00) 17.6 4.17 (16:20) 2.22 (16:20) 0 0 0 0 0
07-10-2020 19.5 (15:00) 15.7 (00:00) 17.6 4.17 (16:10) 1.67 (13:50) 13.6 3.8 8.4 1.2 0.2
06-10-2020 20.9 (13:00) 13 (00:00) 16.9 5 (16:40) 1.67 (13:00) 0.8 0 0.6 0.2 0
05-10-2020 20.2 (16:30) 10.3 (00:00) 15.3 7.22 (13:30) 3.33 (14:40) 4.8 2.2 2.6 0 0
04-10-2020 14.9 (15:10) 8.8 (00:00) 11.8 11.67 (13:10) 4.72 (13:10) 14 0.8 8 4.4 0.8
03-10-2020 17.7 (17:30) 10 (00:00) 13.9 15 (06:50) 5.83 (13:40) 34.4 18 15.8 0.4 0.2
02-10-2020 21.4 (00:00) 10.3 (00:00) 15.8 18.33 (00:20) 7.22 (00:20) 46.4 16.8 13.2 4 12.4
01-10-2020 21.7 (22:40) 13 (00:00) 17.4 14.17 (21:40) 5.28 (23:50) 7.6 0 7.6 0 0
30-09-2020 23.9 (15:20) 7.7 (00:00) 15.8 6.39 (16:20) 2.78 (16:40) 0 0 0 0 0

Gráficas

Temp. máximas Temp. mínimas Temp. medias Precipitaciones Rachas de viento máximas Velocidades máximas media en intervalos de 10 minutos

Datos horarios

Fecha y hora oficial Temperatura (ºC) Velocidad del viento (km/h) Dirección del viento Racha (km/h) Dirección de racha Precipitación (mm) Presión (hPa) Tendencia (hPa) Humedad (%)
2020-10-29 23:00:00 8 0 Calma 4 Oeste 0 -- -- 96
2020-10-29 22:00:00 8.6 2 Oeste 4 Oeste 0 -- -- 95
2020-10-29 21:00:00 9.5 0 Calma 2 Sur 0 -- -- 94
2020-10-29 20:00:00 10.6 0 Calma 4 Oeste 0 -- -- 93
2020-10-29 19:00:00 12.1 0 Calma 3 Sur 0 -- -- 90
2020-10-29 18:00:00 14.3 0 Calma 6 Este 0 -- -- 83
2020-10-29 17:00:00 17 5 Sudeste 19 Este 0 -- -- 73
2020-10-29 16:00:00 20 8 Este 17 Este 0 -- -- 63
2020-10-29 15:00:00 20.4 5 Este 12 Este 0 -- -- 61
2020-10-29 14:00:00 19.9 2 Sudoeste 5 Sudoeste 0 -- -- 66
2020-10-29 13:00:00 18.8 3 Sudoeste 5 Sudoeste 0 -- -- 71
2020-10-29 12:00:00 16.9 0 Calma 4 Sudoeste 0 -- -- 75
2020-10-29 11:00:00 12.7 0 Calma 6 Este 0 -- -- 89
2020-10-29 10:00:00 9.6 0 Calma 5 Sudoeste 0 -- -- 97
2020-10-29 09:00:00 7.4 2 Este 7 Sudoeste 0 -- -- 98
2020-10-29 08:00:00 7.1 0 Calma 6 Oeste 0 -- -- 97
2020-10-29 07:00:00 7.7 3 Este 6 Sudeste 0 -- -- 98
2020-10-29 06:00:00 8.1 0 Calma 3 Sur 0 -- -- 97
2020-10-29 05:00:00 9 0 Calma 4 Oeste 0 -- -- 98
2020-10-29 04:00:00 8.6 0 Calma 4 Oeste 0 -- -- 98
2020-10-29 03:00:00 8.2 0 Calma 5 Oeste 0 -- -- 97
2020-10-29 02:00:00 8.1 0 Calma 5 Oeste 0 -- -- 97
2020-10-29 01:00:00 8.7 2 Oeste 5 Oeste 0 -- -- 95
2020-10-29 00:00:00 9.6 0 Calma 4 Oeste 0 -- -- 95
2020-10-28 23:00:00 10.3 2 Oeste 4 Sudoeste 0 -- -- 93
2020-10-28 22:00:00 11.4 3 Oeste 5 Oeste 0 -- -- 93
2020-10-28 21:00:00 11 0 Calma 4 Oeste 0 -- -- 93
2020-10-28 20:00:00 11.5 0 Calma 4 Sudoeste 0 -- -- 90
2020-10-28 19:00:00 13.6 0 Calma 5 Oeste 0 -- -- 85
2020-10-28 18:00:00 15.2 0 Calma 4 Sur 0 -- -- 82
2020-10-28 17:00:00 17.1 0 Calma 8 Sudeste 0 -- -- 76
2020-10-28 16:00:00 17.2 3 Sudeste 6 Sudeste 0 -- -- 65
2020-10-28 15:00:00 16.8 2 Sudeste 16 Oeste 0 -- -- 69
2020-10-28 14:00:00 16.7 7 Noroeste 19 Oeste 0 -- -- 62
2020-10-28 13:00:00 17 6 Oeste 16 Noroeste 0 -- -- 67
2020-10-28 12:00:00 16.2 0 Calma 6 Oeste 0 -- -- 79
2020-10-28 11:00:00 15.1 0 Calma 3 Nordeste 0 -- -- 87
2020-10-28 10:00:00 14.3 0 Calma 3 Noroeste 0 -- -- 94
2020-10-28 09:00:00 13.3 0 Calma 5 Sudoeste 0 -- -- 97
2020-10-28 08:00:00 13.1 0 Calma 4 Sudeste 0 -- -- 96
2020-10-28 07:00:00 13.3 0 Calma 4 Sudeste 0 -- -- 95
2020-10-28 06:00:00 13.4 0 Calma 3 Oeste 0 -- -- 93
2020-10-28 05:00:00 13.7 0 Calma 11 Oeste 0 -- -- 91
2020-10-28 04:00:00 13.8 4 Oeste 10 Oeste 0 -- -- 92
2020-10-28 03:00:00 13.6 0 Calma 5 Oeste 0 -- -- 92
2020-10-28 02:00:00 13.9 0 Calma 4 Oeste 0 -- -- 90
2020-10-28 01:00:00 14.8 0 Calma 9 Sudeste 0 -- -- 88
2020-10-28 00:00:00 16.1 6 Este 19 Oeste 0 -- -- 83
2020-10-27 23:00:00 17.2 4 Sur 23 Sudoeste 0 -- -- 65
2020-10-27 22:00:00 16.6 3 Oeste 16 Sur 0 -- -- 70
2020-10-27 21:00:00 18.3 6 Sudoeste 22 Noroeste 0 -- -- 61
2020-10-27 20:00:00 18.2 7 Este 29 Sur 0 -- -- 60
2020-10-27 19:00:00 18 10 Nordeste 27 Sur 0 -- -- 60
2020-10-27 18:00:00 18.1 13 Sur 41 Sur 0 -- -- 58
2020-10-27 17:00:00 18.8 18 Sur 37 Sudeste 0 -- -- 57
2020-10-27 16:00:00 18.8 19 Sur 39 Sudeste 0 -- -- 58
2020-10-27 15:00:00 18.6 12 Sur 31 Sudeste 0 -- -- 60
2020-10-27 14:00:00 19.5 5 Sur 19 Sudeste 0 -- -- 55
2020-10-27 13:00:00 19.4 2 Oeste 10 Sudeste 0 -- -- 57
2020-10-27 12:00:00 18.3 5 Sudoeste 20 Sur 0 -- -- 63
2020-10-27 11:00:00 13.7 3 Oeste 14 Oeste 0 -- -- 80
2020-10-27 10:00:00 11.2 7 Oeste 12 Sudoeste 0 -- -- 86
2020-10-27 09:00:00 9.6 2 Oeste 12 Oeste 0 -- -- 89
2020-10-27 08:00:00 8.6 4 Oeste 7 Oeste 0 -- -- 96
2020-10-27 07:00:00 8.3 0 Calma 7 Oeste 0 -- -- 97
2020-10-27 06:00:00 8.1 0 Calma 5 Oeste 0 -- -- 97
2020-10-27 05:00:00 8 2 Oeste 5 Oeste 0 -- -- 97
2020-10-27 04:00:00 8.1 0 Calma 6 Oeste 0 -- -- 97
2020-10-27 03:00:00 7.9 0 Calma 5 Noroeste 0 -- -- 96
2020-10-27 02:00:00 8.3 0 Calma 6 Noroeste 0 -- -- 96
2020-10-27 01:00:00 8.5 0 Calma 10 Oeste 0 -- -- 96
2020-10-27 00:00:00 8.7 3 Sudoeste 5 Norte 0 -- -- 96
2020-10-26 23:00:00 9.2 0 Calma 5 Noroeste 0 -- -- 96
2020-10-26 22:00:00 9.4 3 Sudoeste 6 Noroeste 0 -- -- 94
2020-10-26 21:00:00 10.3 0 Calma 6 Sur 0 -- -- 94
2020-10-26 20:00:00 10.5 2 Oeste 4 Sur 0 -- -- 91
2020-10-26 19:00:00 11.9 0 Calma 8 Sur 0.2 -- -- 84
2020-10-26 18:00:00 13.3 0 Calma 19 Oeste 0 -- -- 76
2020-10-26 17:00:00 15.2 4 Sudoeste 18 Oeste 0 -- -- 61
2020-10-26 16:00:00 15.9 6 Noroeste 31 Oeste 0 -- -- 55
2020-10-26 15:00:00 16.9 9 Noroeste 29 Noroeste 0 -- -- 55
2020-10-26 14:00:00 15 8 Noroeste 28 Oeste 0 -- -- 63
2020-10-26 13:00:00 15 17 Oeste 36 Noroeste 0 -- -- 59
2020-10-26 12:00:00 13.8 6 Noroeste 28 Oeste 0 -- -- 63
2020-10-26 11:00:00 13.2 9 Oeste 23 Noroeste 0 -- -- 64
2020-10-26 10:00:00 11.3 11 Oeste 26 Oeste 0 -- -- 72
2020-10-26 09:00:00 7.7 3 Sudoeste 8 Oeste 0 -- -- 99
2020-10-26 08:00:00 6.7 0 Calma 7 Oeste 0 -- -- 99
2020-10-26 07:00:00 7.1 2 Sur 7 Sudeste 0 -- -- 99
2020-10-26 06:00:00 6.6 3 Este 6 Nordeste 0 -- -- 99
2020-10-26 05:00:00 6.7 4 Sudoeste 12 Noroeste 0 -- -- 99
2020-10-26 04:00:00 6.1 0 Calma 4 Noroeste 0 -- -- 98
2020-10-26 03:00:00 6.3 0 Calma 4 Oeste 0 -- -- 97
2020-10-26 02:00:00 7 0 Calma 6 Sur 0 -- -- 97
2020-10-26 01:00:00 8.1 2 Sur 5 Oeste 0 -- -- 97
2020-10-26 00:00:00 9.1 3 Sudeste 5 Sur 0 -- -- 97
2020-10-25 23:00:00 9.5 0 Calma 4 Sur 0 -- -- 97
2020-10-25 22:00:00 10.2 0 Calma 9 Oeste 0 -- -- 97
2020-10-25 21:00:00 10.7 0 Calma 4 Sudoeste 0.2 -- -- 97
2020-10-25 20:00:00 10.9 3 Nordeste 6 Oeste 0.4 -- -- 96
2020-10-25 19:00:00 11 0 Calma 8 Sur 0.8 -- -- 95
2020-10-25 18:00:00 11.3 3 Sudeste 9 Sudeste 0.6 -- -- 93
2020-10-25 17:00:00 11.8 2 Sudeste 28 Sudoeste 0.4 -- -- 90
2020-10-25 16:00:00 12.4 0 Calma 22 Oeste 0.8 -- -- 89
2020-10-25 15:00:00 12.9 8 Noroeste 23 Sudoeste 1.6 -- -- 90
2020-10-25 14:00:00 14.3 4 Oeste 14 Noroeste 0.2 -- -- 87
2020-10-25 13:00:00 14.3 0 Calma 15 Nordeste 0.8 -- -- 88
2020-10-25 12:00:00 14.6 5 Este 18 Este 0 -- -- 85
2020-10-25 11:00:00 14.3 3 Sudeste 10 Este 0 -- -- 89
2020-10-25 10:00:00 13.6 3 Este 11 Nordeste 0 -- -- 91
2020-10-25 09:00:00 14.2 3 Este 19 Nordeste 0 -- -- 86
2020-10-25 08:00:00 15.3 9 Este 28 Este 0 -- -- 80
2020-10-25 07:00:00 19.1 9 Sudoeste 36 Sur 0 -- -- 55
2020-10-25 06:00:00 19.1 10 Este 67 Oeste 0 -- -- 55
2020-10-25 05:00:00 18.7 14 Sudoeste 72 Oeste 0 -- -- 56
2020-10-25 04:00:00 19.1 12 Oeste 55 Oeste 0 -- -- 54
2020-10-25 03:00:00 18.9 14 Sudoeste 60 Oeste 0 -- -- 55
2020-10-25 02:00:00 18.8 19 Sur 50 Sur 0 -- -- 56
2020-10-25 01:00:00 19.3 19 Sudoeste 67 Oeste 0 -- -- 54
2020-10-25 00:00:00 19.4 24 Sudoeste 69 Oeste 0 -- -- 53
2020-10-24 23:00:00 19.3 19 Sur 57 Sudoeste 0 -- -- 52
2020-10-24 22:00:00 19.1 23 Sur 61 Sur 0 -- -- 53
2020-10-24 21:00:00 19.1 25 Sur 54 Sur 0 -- -- 53
2020-10-24 20:00:00 19 21 Sudoeste 62 Sudoeste 0 -- -- 53
2020-10-24 19:00:00 19.1 23 Sur 53 Sur 0 -- -- 51
2020-10-24 18:00:00 18.7 25 Sur 50 Oeste 0 -- -- 53
2020-10-24 17:00:00 18.5 19 Sudoeste 50 Sur 0 -- -- 53
2020-10-24 16:00:00 19.2 8 Nordeste 33 Oeste 0 -- -- 50
2020-10-24 15:00:00 19.2 9 Sudoeste 37 Sur 0 -- -- 51
2020-10-24 14:00:00 18.5 13 Sur 34 Sur 0 -- -- 55
2020-10-24 13:00:00 17.7 9 Sudeste 28 Sur 0 -- -- 58
2020-10-24 12:00:00 13.2 6 Noroeste 33 Sudoeste 0 -- -- 84
2020-10-24 11:00:00 9.1 2 Oeste 6 Oeste 0 -- -- 100
2020-10-24 10:00:00 6.8 0 Calma 4 Sudoeste 0 -- -- 99
2020-10-24 09:00:00 6.3 0 Calma 5 Oeste 0 -- -- 99
2020-10-24 08:00:00 6.4 2 Oeste 5 Oeste 0 -- -- 98
2020-10-24 07:00:00 6.5 0 Calma 4 Oeste 0 -- -- 98
2020-10-24 06:00:00 7.1 2 Sudoeste 5 Sudoeste 0 -- -- 98
2020-10-24 05:00:00 7.3 0 Calma 4 Oeste 0 -- -- 97
2020-10-24 04:00:00 7.7 0 Calma 5 Sudoeste 0 -- -- 97
2020-10-24 03:00:00 8.4 0 Calma 5 Oeste 0 -- -- 97
2020-10-24 02:00:00 8.8 0 Calma 5 Oeste 0 -- -- 96
2020-10-24 01:00:00 9.7 2 Oeste 5 Sudoeste 0 -- -- 95
2020-10-24 00:00:00 10.6 0 Calma 3 Oeste 0 -- -- 95
2020-10-23 23:00:00 11.1 0 Calma 3 Sur 0 -- -- 92
2020-10-23 22:00:00 12.9 0 Calma 4 Oeste 0 -- -- 91
2020-10-23 21:00:00 14.1 0 Calma 4 Sur 0 -- -- 87
2020-10-23 20:00:00 14.8 0 Calma 6 Oeste 0 -- -- 84
2020-10-23 19:00:00 15.7 0 Calma 6 Oeste 0 -- -- 80
2020-10-23 18:00:00 16.9 0 Calma 10 Nordeste 0 -- -- 77
2020-10-23 17:00:00 16.9 3 Norte 6 Oeste 0 -- -- 72
2020-10-23 16:00:00 16 4 Sudoeste 10 Sudoeste 0 -- -- 78
2020-10-23 15:00:00 15.8 7 Nordeste 22 Oeste 0.2 -- -- 81
2020-10-23 14:00:00 18 3 Este 9 Este 0 -- -- 71
2020-10-23 13:00:00 17.5 2 Nordeste 9 Nordeste 0 -- -- 73
2020-10-23 12:00:00 16.9 5 Nordeste 9 Este 0 -- -- 77
2020-10-23 11:00:00 15.5 0 Calma 5 Este 0 -- -- 85
2020-10-23 10:00:00 12.8 2 Este 5 Oeste 0 -- -- 99
2020-10-23 09:00:00 11.6 0 Calma 4 Sudeste 0 -- -- 97
2020-10-23 08:00:00 11.8 0 Calma 2 Oeste 0 -- -- 97
2020-10-23 07:00:00 12.1 0 Calma 3 Este 0 -- -- 97
2020-10-23 06:00:00 12.4 0 Calma 6 Oeste 0 -- -- 97
2020-10-23 05:00:00 12.6 0 Calma 5 Sudoeste 0.2 -- -- 97
2020-10-23 04:00:00 12.5 0 Calma 3 Noroeste 0 -- -- 96
2020-10-23 03:00:00 12.6 0 Calma 4 Oeste 0 -- -- 95
2020-10-23 02:00:00 12.7 0 Calma 3 Oeste 0 -- -- 95
2020-10-23 01:00:00 12.9 0 Calma 4 Noroeste 0 -- -- 94
2020-10-23 00:00:00 13.3 2 Sur 6 Oeste 0 -- -- 91
2020-10-22 23:00:00 13.8 3 Noroeste 10 Oeste 0 -- -- 90
2020-10-22 22:00:00 14.2 2 Sudoeste 6 Oeste 0 -- -- 89
2020-10-22 21:00:00 15 0 Calma 8 Sudoeste 0 -- -- 83
2020-10-22 20:00:00 16.8 3 Sudoeste 15 Sur 0 -- -- 77
2020-10-22 19:00:00 16.6 0 Calma 8 Este 0 -- -- 84
2020-10-22 18:00:00 18.1 3 Sudeste 9 Sur 0 -- -- 77
2020-10-22 17:00:00 20.3 5 Sudeste 22 Sur 0 -- -- 64
2020-10-22 16:00:00 19.3 0 Calma 8 Nordeste 0 -- -- 80
2020-10-22 15:00:00 19.7 3 Sudeste 10 Este 0.2 -- -- 79
2020-10-22 14:00:00 18.4 3 Sur 8 Sur 0 -- -- 82
2020-10-22 13:00:00 18.7 0 Calma 17 Sudeste 0 -- -- 75
2020-10-22 12:00:00 19.1 5 Sudeste 20 Oeste 0 -- -- 66
2020-10-22 11:00:00 16.2 3 Sudeste 15 Sudeste 0 -- -- 75
2020-10-22 10:00:00 14.6 6 Sudeste 15 Este 0 -- -- 81
2020-10-22 09:00:00 13.7 5 Sudeste 15 Este 0 -- -- 83
2020-10-22 08:00:00 16.5 6 Sudeste 21 Sur 0 -- -- 70
2020-10-22 07:00:00 17.6 9 Sur 31 Sudoeste 0 -- -- 63
2020-10-22 06:00:00 15 5 Sur 11 Sur 0 -- -- 77
2020-10-22 05:00:00 17.6 6 Sur 24 Sudeste 0 -- -- 63
2020-10-22 04:00:00 17.1 9 Sur 36 Sur 0 -- -- 65
2020-10-22 03:00:00 12 2 Nordeste 8 Oeste 0 -- -- 92
2020-10-22 02:00:00 12.2 0 Calma 10 Oeste 0 -- -- 92
2020-10-22 01:00:00 11.5 0 Calma 4 Sudeste 0 -- -- 94
2020-10-22 00:00:00 12.3 0 Calma 6 Oeste 0 -- -- 92
2020-10-21 23:00:00 13.4 3 Sur 18 Sur 0 -- -- 91
2020-10-21 22:00:00 13.6 3 Sudoeste 5 Oeste 0 -- -- 90
2020-10-21 21:00:00 14.8 3 Sur 12 Sur 0 -- -- 84
2020-10-21 20:00:00 16.6 4 Sudeste 16 Sudeste 0 -- -- 73
2020-10-21 19:00:00 18.6 5 Sudeste 18 Sudeste 0 -- -- 63
2020-10-21 18:00:00 18.7 3 Sudoeste 7 Oeste 0 -- -- 81
2020-10-21 17:00:00 19.1 3 Sudeste 12 Sudoeste 0 -- -- 84
2020-10-21 16:00:00 18.6 3 Sur 19 Oeste 0 -- -- 84
2020-10-21 15:00:00 19.5 4 Noroeste 27 Este 0.4 -- -- 67
2020-10-21 14:00:00 21.1 9 Este 30 Sudeste 0 -- -- 56
2020-10-21 13:00:00 21.7 9 Este 28 Nordeste 0 -- -- 54
2020-10-21 12:00:00 19.7 8 Este 22 Este 0 -- -- 62
2020-10-21 11:00:00 19.5 4 Sur 28 Noroeste 0 -- -- 63
2020-10-21 10:00:00 19.3 6 Nordeste 35 Nordeste 0 -- -- 59
2020-10-21 09:00:00 18.8 7 Este 29 Sudoeste 0 -- -- 62
2020-10-21 08:00:00 17.7 7 Este 23 Sudeste 0 -- -- 68
2020-10-21 07:00:00 18.2 9 Este 31 Sur 0 -- -- 68
2020-10-21 06:00:00 19 9 Este 44 Este 0 -- -- 63
2020-10-21 05:00:00 19.6 13 Nordeste 32 Noroeste 0 -- -- 58
2020-10-21 04:00:00 18.3 13 Nordeste 26 Nordeste 0.2 -- -- 67
2020-10-21 03:00:00 18.5 9 Sur 36 Oeste 1.2 -- -- 71
2020-10-21 02:00:00 18.3 12 Este 58 Este 1.8 -- -- 84
2020-10-21 01:00:00 20.2 18 Sudeste 73 Sudeste 0.4 -- -- 69
2020-10-21 00:00:00 19.7 18 Sudeste 67 Este 0.2 -- -- 69
2020-10-20 23:00:00 19 26 Este 61 Este 0.8 -- -- 74
2020-10-20 22:00:00 18.7 30 Este 71 Sur 1.6 -- -- 76
2020-10-20 21:00:00 18.8 21 Este 46 Este 1 -- -- 75
2020-10-20 20:00:00 18 19 Este 41 Nordeste 2 -- -- 79
2020-10-20 19:00:00 17.1 9 Nordeste 18 Este 1.4 -- -- 86
2020-10-20 18:00:00 18.4 4 Sudeste 18 Nordeste 0.6 -- -- 81
2020-10-20 17:00:00 20 6 Nordeste 23 Este 0 -- -- 69
2020-10-20 16:00:00 20.4 7 Este 26 Este 0 -- -- 65
2020-10-20 15:00:00 19.7 10 Este 25 Este 0 -- -- 69
2020-10-20 14:00:00 20.2 6 Nordeste 20 Sudeste 0 -- -- 66
2020-10-20 13:00:00 18.8 5 Nordeste 16 Sudeste 0 -- -- 71
2020-10-20 12:00:00 19 4 Sudoeste 62 Sudeste 0 -- -- 68
2020-10-20 11:00:00 20.4 22 Sur 71 Oeste 0 -- -- 57
2020-10-20 10:00:00 20.4 29 Sudoeste 61 Oeste 0 -- -- 55
2020-10-20 09:00:00 19.8 24 Sudoeste 55 Sur 0 -- -- 57
2020-10-20 08:00:00 18.9 13 Sur 59 Sudeste 1 -- -- 63
2020-10-20 07:00:00 19.3 14 Sur 59 Sur 0 -- -- 61
2020-10-20 06:00:00 20.8 10 Sur 51 Sudeste 0 -- -- 51
2020-10-20 05:00:00 20.2 12 Este 50 Sudoeste 0 -- -- 54
2020-10-20 04:00:00 19.6 9 Este 23 Este 0 -- -- 55
2020-10-20 03:00:00 20.7 7 Sur 24 Sur 0 -- -- 50
2020-10-20 02:00:00 21.9 4 Sur 23 Este 0 -- -- 47
2020-10-20 01:00:00 22.5 12 Este 34 Este 0 -- -- 42
2020-10-20 00:00:00 19.7 7 Este 16 Este 0 -- -- 56
2020-10-19 23:00:00 21.8 5 Este 22 Este 0 -- -- 43
2020-10-19 22:00:00 16.6 3 Este 9 Oeste 0 -- -- 75
2020-10-19 21:00:00 18.1 3 Noroeste 13 Sur 0 -- -- 68
2020-10-19 20:00:00 20.7 4 Sudeste 16 Este 0 -- -- 55
2020-10-19 19:00:00 21 3 Sudoeste 12 Este 0 -- -- 55
2020-10-19 18:00:00 21.6 7 Sudeste 23 Noroeste 0 -- -- 39
2020-10-19 17:00:00 22.2 3 Sudeste 10 Oeste 0 -- -- 61
2020-10-19 16:00:00 25.1 4 Norte 17 Este 0 -- -- 37
2020-10-19 15:00:00 24 6 Este 27 Nordeste 0 -- -- 43
2020-10-19 14:00:00 24.7 12 Nordeste 57 Este 0 -- -- 33
2020-10-19 13:00:00 24.4 12 Nordeste 55 Este 0 -- -- 30
2020-10-19 12:00:00 23 9 Sudeste 37 Sudeste 0 -- -- 33
2020-10-19 11:00:00 17.9 5 Este 40 Sudeste 0 -- -- 47
2020-10-19 10:00:00 11.6 8 Oeste 16 Sudoeste 0 -- -- 91
2020-10-19 09:00:00 9.2 4 Noroeste 17 Oeste 0 -- -- 99
2020-10-19 08:00:00 8.6 5 Noroeste 10 Oeste 0 -- -- 100
2020-10-19 07:00:00 7.8 0 Calma 8 Sudoeste 0 -- -- 99
2020-10-19 06:00:00 7.9 2 Sudeste 6 Sudoeste 0 -- -- 99
2020-10-19 05:00:00 7.9 0 Calma 6 Sudoeste 0 -- -- 99
2020-10-19 04:00:00 8.2 0 Calma 4 Oeste 0 -- -- 99
2020-10-19 03:00:00 8.6 0 Calma 3 Sudoeste 0 -- -- 99
2020-10-19 02:00:00 8.7 2 Oeste 6 Sudoeste 0 -- -- 99
2020-10-19 01:00:00 8.9 0 Calma 4 Oeste 0 -- -- 98
2020-10-19 00:00:00 9 0 Calma 3 Oeste 0 -- -- 97
2020-10-18 23:00:00 9.5 0 Calma 3 Noroeste 0 -- -- 96
2020-10-18 22:00:00 10.4 0 Calma 3 Sur 0 -- -- 95
2020-10-18 21:00:00 11.6 0 Calma 2 Oeste 0 -- -- 93
2020-10-18 20:00:00 13 0 Calma 3 Sur 0 -- -- 91
2020-10-18 19:00:00 15.2 0 Calma 13 Nordeste 0 -- -- 87
2020-10-18 18:00:00 19.8 5 Este 14 Sudeste 0 -- -- 67
2020-10-18 17:00:00 21.3 9 Nordeste 15 Este 0 -- -- 64
2020-10-18 16:00:00 21.5 3 Sur 13 Este 0 -- -- 65
2020-10-18 15:00:00 20.9 6 Nordeste 13 Nordeste 0 -- -- 62
2020-10-18 14:00:00 19.3 5 Este 8 Este 0 -- -- 69
2020-10-18 13:00:00 16.4 0 Calma 5 Este 0 -- -- 81
2020-10-18 12:00:00 11.1 0 Calma 2 Sudoeste 0 -- -- 100
2020-10-18 11:00:00 8.4 0 Calma 5 Oeste 0 -- -- 100
2020-10-18 10:00:00 6.9 0 Calma 4 Oeste 0 -- -- 100
2020-10-18 09:00:00 5.8 0 Calma 4 Oeste 0 -- -- 100
2020-10-18 08:00:00 5.6 0 Calma 4 Oeste 0 -- -- 99
2020-10-18 07:00:00 5.8 0 Calma 4 Oeste 0 -- -- 99
2020-10-18 06:00:00 5.7 0 Calma 2 Sur 0 -- -- 99
2020-10-18 05:00:00 5.8 0 Calma 3 Oeste 0 -- -- 99
2020-10-18 04:00:00 5.9 0 Calma 3 Oeste 0 -- -- 99
2020-10-18 03:00:00 6.2 0 Calma 3 Oeste 0 -- -- 98
2020-10-18 02:00:00 6.7 3 Oeste 6 Sudoeste 0 -- -- 99
2020-10-18 01:00:00 6.8 0 Calma 4 Sudoeste 0 -- -- 98
2020-10-18 00:00:00 7.2 0 Calma 4 Oeste 0 -- -- 97
2020-10-17 23:00:00 7.6 0 Calma 4 Sudoeste 0 -- -- 97
2020-10-17 22:00:00 8.3 0 Calma 2 Oeste 0 -- -- 95
2020-10-17 21:00:00 9.2 0 Calma 3 Oeste 0 -- -- 94
2020-10-17 20:00:00 10.5 0 Calma 4 Sur 0 -- -- 90
2020-10-17 19:00:00 12.8 2 Sur 5 Este 0 -- -- 85
2020-10-17 18:00:00 16.7 3 Sudeste 9 Sudeste 0 -- -- 72
2020-10-17 17:00:00 17.2 3 Este 15 Este 0 -- -- 70
2020-10-17 16:00:00 18.4 7 Nordeste 14 Nordeste 0 -- -- 60
2020-10-17 15:00:00 18.8 3 Este 11 Nordeste 0 -- -- 62
2020-10-17 14:00:00 16.8 3 Sudoeste 5 Oeste 0 -- -- 68
2020-10-17 13:00:00 13.7 0 Calma 3 Oeste 0 -- -- 76
2020-10-17 12:00:00 9.6 0 Calma 4 Sudeste 0 -- -- 100
2020-10-17 11:00:00 6.9 2 Oeste 4 Oeste 0 -- -- 100
2020-10-17 10:00:00 5.1 0 Calma 4 Noroeste 0 -- -- 100
2020-10-17 09:00:00 4.8 0 Calma 3 Noroeste 0 -- -- 100
2020-10-17 08:00:00 5 0 Calma 2 Norte 0 -- -- 100
2020-10-17 07:00:00 5.1 2 Oeste 5 Noroeste 0 -- -- 100
2020-10-17 06:00:00 5.3 0 Calma 4 Noroeste 0 -- -- 100
2020-10-17 05:00:00 5.3 0 Calma 4 Noroeste 0 -- -- 100
2020-10-17 04:00:00 5.6 0 Calma 3 Norte 0 -- -- 100
2020-10-17 03:00:00 5.7 0 Calma 4 Noroeste 0 -- -- 100
2020-10-17 02:00:00 6 0 Calma 3 Oeste 0 -- -- 99
2020-10-17 01:00:00 5.9 0 Calma 4 Oeste 0 -- -- 99
2020-10-17 00:00:00 6 0 Calma 3 Oeste 0 -- -- 99
2020-10-16 23:00:00 6.4 0 Calma 6 Oeste 0 -- -- 98
2020-10-16 22:00:00 7.2 0 Calma 4 Oeste 0 -- -- 97
2020-10-16 21:00:00 8.3 0 Calma 4 Sudeste 0 -- -- 96
2020-10-16 20:00:00 9.6 0 Calma 3 Sur 0 -- -- 95
2020-10-16 19:00:00 10.6 0 Calma 4 Sur 0 -- -- 92
2020-10-16 18:00:00 12.8 3 Sur 5 Sur 0 -- -- 86
2020-10-16 17:00:00 14.1 2 Sudoeste 4 Oeste 0 -- -- 77
2020-10-16 16:00:00 13.3 0 Calma 8 Nordeste 0 -- -- 76
2020-10-16 15:00:00 11.6 0 Calma 3 Este 0 -- -- 89
2020-10-16 14:00:00 10.3 0 Calma 3 Este 0 -- -- 99
2020-10-16 13:00:00 9.5 0 Calma 2 Este 0 -- -- 100
2020-10-16 12:00:00 9.1 0 Calma 6 Sudoeste 0 -- -- 100
2020-10-16 11:00:00 8 2 Oeste 9 Sudoeste 0 -- -- 100
2020-10-16 10:00:00 7.1 0 Calma 5 Oeste 0 -- -- 100
2020-10-16 09:00:00 6.8 3 Oeste 6 Noroeste 0 -- -- 100
2020-10-16 08:00:00 6.8 3 Sudoeste 5 Oeste 0 -- -- 100
2020-10-16 07:00:00 7 0 Calma 4 Noroeste 0 -- -- 100
2020-10-16 06:00:00 7.1 0 Calma 3 Sur 0 -- -- 100
2020-10-16 05:00:00 7.3 0 Calma 2 Noroeste 0.2 -- -- 100
2020-10-16 04:00:00 7.7 0 Calma 6 Oeste 0 -- -- 99
2020-10-16 03:00:00 7.5 2 Oeste 5 Oeste 0 -- -- 99
2020-10-16 02:00:00 7.6 0 Calma 3 Oeste 0 -- -- 99
2020-10-16 01:00:00 8.2 2 Oeste 6 Norte 0 -- -- 99
2020-10-16 00:00:00 7.6 0 Calma 6 Oeste 0 -- -- 98
2020-10-15 23:00:00 8.6 0 Calma 5 Oeste 0.2 -- -- 98
2020-10-15 22:00:00 8.7 3 Oeste 6 Noroeste 0.2 -- -- 98
2020-10-15 21:00:00 8.9 2 Sudoeste 6 Sudoeste 0 -- -- 98
2020-10-15 20:00:00 8.7 3 Oeste 6 Oeste 0 -- -- 97
2020-10-15 19:00:00 9.8 2 Sudoeste 14 Nordeste 2 -- -- 95
2020-10-15 18:00:00 10.5 3 Sudoeste 8 Sudoeste 2 -- -- 95
2020-10-15 17:00:00 10.4 0 Calma 6 Este 0.2 -- -- 94
2020-10-15 16:00:00 10.5 0 Calma 10 Sudoeste 2.2 -- -- 93
2020-10-15 15:00:00 11.7 0 Calma 6 Oeste 0 -- -- 90
2020-10-15 14:00:00 10.8 3 Oeste 14 Nordeste 1 -- -- 93
2020-10-15 13:00:00 11 0 Calma 10 Nordeste 1 -- -- 95
2020-10-15 12:00:00 10.4 0 Calma 5 Oeste 0 -- -- 97
2020-10-15 11:00:00 9.7 0 Calma 23 Este 3.2 -- -- 98
2020-10-15 10:00:00 9.8 3 Noroeste 9 Nordeste 0.4 -- -- 99
2020-10-15 09:00:00 9.4 3 Sudoeste 4 Oeste 0 -- -- 99
2020-10-15 08:00:00 9.7 2 Oeste 5 Oeste 0.4 -- -- 99
2020-10-15 07:00:00 9.8 3 Sudoeste 5 Sur 1.4 -- -- 99
2020-10-15 06:00:00 9.9 0 Calma 3 Sur 0.6 -- -- 99
2020-10-15 05:00:00 9.9 0 Calma 7 Sur 1.6 -- -- 99
2020-10-15 04:00:00 9.9 2 Oeste 5 Sur 1.2 -- -- 99
2020-10-15 03:00:00 9.9 3 Oeste 5 Oeste 0 -- -- 99
2020-10-15 02:00:00 10 0 Calma 6 Sudoeste 0 -- -- 98
2020-10-15 01:00:00 10.3 0 Calma 5 Sudoeste 1 -- -- 98
2020-10-15 00:00:00 10.4 4 Oeste 13 Oeste 3 -- -- 97
2020-10-14 23:00:00 10.4 0 Calma 3 Sur 0 -- -- 98
2020-10-14 22:00:00 10.7 0 Calma 12 Sudoeste 0.2 -- -- 97
2020-10-14 21:00:00 10.8 0 Calma 9 Oeste 0.8 -- -- 97
2020-10-14 20:00:00 11.2 2 Noroeste 6 Noroeste 1.8 -- -- 97
2020-10-14 19:00:00 11.5 0 Calma 13 Oeste 0.4 -- -- 95
2020-10-14 18:00:00 11.5 5 Noroeste 12 Noroeste 0.8 -- -- 92
2020-10-14 17:00:00 11 6 Noroeste 16 Oeste 2.2 -- -- 94
2020-10-14 16:00:00 11.1 7 Noroeste 22 Norte 5.6 -- -- 89
2020-10-14 15:00:00 11.9 6 Nordeste 13 Este 0.8 -- -- 93
2020-10-14 14:00:00 11.2 3 Noroeste 21 Oeste 2.8 -- -- 91
2020-10-14 13:00:00 11.5 6 Noroeste 20 Oeste 2 -- -- 90
2020-10-14 12:00:00 13 6 Noroeste 15 Noroeste 0 -- -- 84
2020-10-14 11:00:00 12 2 Nordeste 5 Sudeste 0.6 -- -- 94
2020-10-14 10:00:00 11 0 Calma 5 Sudeste 1.2 -- -- 98
2020-10-14 09:00:00 10.5 3 Oeste 7 Norte 2.2 -- -- 98
2020-10-14 08:00:00 10.6 0 Calma 15 Sur 0.8 -- -- 98
2020-10-14 07:00:00 10.7 2 Noroeste 9 Norte 2.4 -- -- 97
2020-10-14 06:00:00 10.8 2 Oeste 10 Noroeste 4 -- -- 96
2020-10-14 05:00:00 10.8 0 Calma 14 Noroeste 7.4 -- -- 96
2020-10-14 04:00:00 10.8 0 Calma 5 Oeste 1.4 -- -- 97
2020-10-14 03:00:00 11.1 0 Calma 14 Oeste 1.6 -- -- 95
2020-10-14 02:00:00 11.1 5 Oeste 11 Sudoeste 5.2 -- -- 98
2020-10-14 01:00:00 11.1 0 Calma 8 Sudeste 2.8 -- -- 98
2020-10-14 00:00:00 11.2 0 Calma 5 Sur 2 -- -- 97
2020-10-13 23:00:00 11.5 2 Sudeste 10 Oeste 1.2 -- -- 97
2020-10-13 22:00:00 11.5 0 Calma 5 Oeste 1.2 -- -- 97
2020-10-13 21:00:00 11.7 2 Sur 14 Oeste 2.6 -- -- 95
2020-10-13 20:00:00 12.2 3 Oeste 9 Sudoeste 1 -- -- 95
2020-10-13 19:00:00 12.8 3 Sudoeste 10 Sudoeste 0.2 -- -- 92
2020-10-13 18:00:00 12.9 0 Calma 19 Oeste 0.6 -- -- 94
2020-10-13 17:00:00 13.1 6 Oeste 23 Sudoeste 0.2 -- -- 88
2020-10-13 16:00:00 13.4 6 Oeste 14 Sudoeste 0.6 -- -- 91
2020-10-13 15:00:00 13.7 3 Oeste 8 Oeste 0.6 -- -- 93
2020-10-13 14:00:00 13.5 5 Oeste 17 Oeste 0.8 -- -- 92
2020-10-13 13:00:00 14 3 Oeste 10 Sudoeste 0 -- -- 89
2020-10-13 12:00:00 13.3 2 Oeste 8 Noroeste 0.6 -- -- 94
2020-10-13 11:00:00 13.2 0 Calma 8 Sudoeste 0.2 -- -- 95
2020-10-13 10:00:00 -- -- -- -- -- -- -- -- --
2020-10-13 09:00:00 13.3 5 Oeste 20 Oeste 1 -- -- 95
2020-10-13 08:00:00 13.4 5 Oeste 13 Oeste 2.2 -- -- 97
2020-10-13 07:00:00 13.8 2 Norte 11 Noroeste 1 -- -- 96
2020-10-13 06:00:00 14.1 4 Noroeste 13 Oeste 0.6 -- -- 95
2020-10-13 05:00:00 14.6 6 Oeste 19 Oeste 0.2 -- -- 95
2020-10-13 04:00:00 15.2 3 Norte 15 Oeste 0.2 -- -- 95
2020-10-13 03:00:00 15.7 6 Oeste 19 Oeste 0.6 -- -- 95
2020-10-13 02:00:00 16 8 Oeste 21 Sudoeste 1.4 -- -- 96
2020-10-13 01:00:00 -- -- -- -- -- -- -- -- --
2020-10-13 00:00:00 14.9 3 Noroeste 13 Oeste 2 -- -- 99
2020-10-12 23:00:00 13.6 0 Calma 6 Este 2 -- -- 97
2020-10-12 22:00:00 13.8 0 Calma 5 Este 1.4 -- -- 95
2020-10-12 21:00:00 14 0 Calma 6 Sudoeste 0 -- -- 92
2020-10-12 20:00:00 14.5 0 Calma 5 Sur 0 -- -- 89
2020-10-12 19:00:00 15.3 4 Sur 6 Sur 0 -- -- 84
2020-10-12 18:00:00 17.6 0 Calma 10 Noroeste 0 -- -- 73
2020-10-12 17:00:00 17.6 4 Noroeste 15 Oeste 0 -- -- 62
2020-10-12 16:00:00 18.1 6 Noroeste 15 Oeste 0 -- -- 58
2020-10-12 15:00:00 17 6 Noroeste 26 Oeste 0 -- -- 65
2020-10-12 14:00:00 16.3 7 Noroeste 19 Oeste 0 -- -- 68
2020-10-12 13:00:00 16.1 6 Oeste 18 Sudoeste 0 -- -- 71
2020-10-12 12:00:00 14.5 3 Oeste 11 Noroeste 0 -- -- 83
2020-10-12 11:00:00 12.4 0 Calma 5 Sudeste 0 -- -- 98
2020-10-12 10:00:00 11.4 0 Calma 3 Sur 0 -- -- 99
2020-10-12 09:00:00 10.9 0 Calma 3 Sudoeste 0 -- -- 99
2020-10-12 08:00:00 10.7 0 Calma 4 Sudoeste 0 -- -- 99
2020-10-12 07:00:00 10.7 2 Sur 7 Sudoeste 0.2 -- -- 98
2020-10-12 06:00:00 10.5 0 Calma 3 Sur 0 -- -- 97
2020-10-12 05:00:00 11 0 Calma 11 Noroeste 0.2 -- -- 97
2020-10-12 04:00:00 -- -- -- -- -- -- -- -- --
2020-10-12 03:00:00 11 6 Noroeste 13 Noroeste 0.2 -- -- 98
2020-10-12 02:00:00 10.7 2 Noroeste 5 Noroeste 0 -- -- 98
2020-10-12 01:00:00 10.8 0 Calma 6 Noroeste 0 -- -- 97
2020-10-12 00:00:00 11.1 3 Noroeste 13 Noroeste 0 -- -- 96
2020-10-11 23:00:00 10.9 3 Noroeste 9 Oeste 0 -- -- 96
2020-10-11 22:00:00 11.5 3 Noroeste 21 Oeste 1.4 -- -- 94
2020-10-11 21:00:00 -- -- -- -- -- -- -- -- --
2020-10-11 20:00:00 -- -- -- -- -- -- -- -- --
2020-10-11 19:00:00 12.2 4 Noroeste 15 Oeste 0.8 -- -- 90
2020-10-11 18:00:00 13.3 3 Noroeste 20 Oeste 0.2 -- -- 84
2020-10-11 17:00:00 13.2 4 Noroeste 24 Noroeste 0 -- -- 84
2020-10-11 16:00:00 13.3 12 Oeste 24 Oeste 0.4 -- -- 85
2020-10-11 15:00:00 14 9 Oeste 27 Sudoeste 0.2 -- -- 77
2020-10-11 14:00:00 13.6 4 Noroeste 25 Oeste 0.4 -- -- 88
2020-10-11 13:00:00 13.7 5 Noroeste 12 Noroeste 0.6 -- -- 87
2020-10-11 12:00:00 12.7 2 Noroeste 9 Noroeste 0.4 -- -- 91
2020-10-11 11:00:00 11.6 0 Calma 8 Oeste 0.8 -- -- 96
2020-10-11 10:00:00 11.3 4 Oeste 11 Oeste 0.2 -- -- 95
2020-10-11 09:00:00 10.8 5 Oeste 9 Oeste 0 -- -- 99
2020-10-11 08:00:00 10.7 0 Calma 4 Sur 0.2 -- -- 98
2020-10-11 07:00:00 10.6 0 Calma 3 Sur 0 -- -- 98
2020-10-11 06:00:00 10.8 0 Calma 5 Sudoeste 0 -- -- 98
2020-10-11 05:00:00 11 0 Calma 8 Oeste 0.2 -- -- 97
2020-10-11 04:00:00 11.4 4 Oeste 9 Sudoeste 0 -- -- 97
2020-10-11 03:00:00 11.6 4 Oeste 9 Sudoeste 0 -- -- 97
2020-10-11 02:00:00 11.8 4 Oeste 8 Oeste 0 -- -- 97
2020-10-11 01:00:00 12.1 2 Sudoeste 8 Oeste 0 -- -- 97
2020-10-11 00:00:00 12.3 5 Oeste 9 Oeste 0.6 -- -- 97
2020-10-10 23:00:00 12.6 0 Calma 5 Oeste 0.4 -- -- 98
2020-10-10 22:00:00 12.6 0 Calma 4 Oeste 0 -- -- 98
2020-10-10 21:00:00 12.7 3 Oeste 5 Oeste 0.8 -- -- 97
2020-10-10 20:00:00 12.9 4 Norte 18 Oeste 1.6 -- -- 94
2020-10-10 19:00:00 14 5 Oeste 12 Noroeste 0 -- -- 91
2020-10-10 18:00:00 14.6 4 Oeste 10 Oeste 0 -- -- 89
2020-10-10 17:00:00 14.1 3 Oeste 11 Oeste 0.8 -- -- 90
2020-10-10 16:00:00 15.3 3 Este 8 Nordeste 0.8 -- -- 91
2020-10-10 15:00:00 16.4 0 Calma 9 Este 0 -- -- 84
2020-10-10 14:00:00 15 3 Sudeste 10 Oeste 0.2 -- -- 93
2020-10-10 13:00:00 13.6 7 Oeste 12 Noroeste 0.2 -- -- 92
2020-10-10 12:00:00 13.7 0 Calma 11 Oeste 0.4 -- -- 93
2020-10-10 11:00:00 12.9 3 Noroeste 11 Oeste 0.2 -- -- 96
2020-10-10 10:00:00 13.2 0 Calma 11 Este 0.6 -- -- 96
2020-10-10 09:00:00 13.6 5 Este 15 Este 0.8 -- -- 97
2020-10-10 08:00:00 14.1 0 Calma 11 Este 0.2 -- -- 98
2020-10-10 07:00:00 14.6 2 Este 12 Nordeste 2.4 -- -- 99
2020-10-10 06:00:00 14.3 3 Oeste 6 Oeste 1.8 -- -- 98
2020-10-10 05:00:00 14.3 0 Calma 2 Sur 1.8 -- -- 98
2020-10-10 04:00:00 14.2 0 Calma 3 Oeste 0 -- -- 98
2020-10-10 03:00:00 14.3 0 Calma 2 Oeste 0 -- -- 98
2020-10-10 02:00:00 14.5 0 Calma 4 Oeste 0 -- -- 97
2020-10-10 01:00:00 14.8 0 Calma 5 Sudoeste 0 -- -- 97
2020-10-10 00:00:00 15.2 0 Calma 4 Oeste 0 -- -- 97
2020-10-09 23:00:00 15.6 0 Calma 3 Sudoeste 0 -- -- 96
2020-10-09 22:00:00 16.1 0 Calma 4 Sudeste 0 -- -- 95
2020-10-09 21:00:00 16.4 0 Calma 2 Sudoeste 0 -- -- 94
2020-10-09 20:00:00 16.7 0 Calma 9 Oeste 0 -- -- 92
2020-10-09 19:00:00 17.2 0 Calma 6 Oeste 0 -- -- 91
2020-10-09 18:00:00 17.7 3 Oeste 10 Oeste 0 -- -- 86
2020-10-09 17:00:00 17.9 5 Noroeste 9 Oeste 0 -- -- 85
2020-10-09 16:00:00 17.9 4 Noroeste 10 Noroeste 0 -- -- 82
2020-10-09 15:00:00 18.7 3 Nordeste 6 Este 0 -- -- 86
2020-10-09 14:00:00 18.9 0 Calma 4 Norte 0 -- -- 86
2020-10-09 13:00:00 18.1 2 Nordeste 4 Nordeste 0 -- -- 90
2020-10-09 12:00:00 17.5 0 Calma 2 Oeste 0 -- -- 92
2020-10-09 11:00:00 16.8 0 Calma 0 Calma 0 -- -- 97
2020-10-09 10:00:00 16.5 0 Calma 0 Calma 0 -- -- 98
2020-10-09 09:00:00 16.2 0 Calma 2 Sudeste 0 -- -- 98
2020-10-09 08:00:00 16.1 0 Calma 2 Noroeste 0 -- -- 98
2020-10-09 07:00:00 16.2 0 Calma 2 Sur 0 -- -- 98
2020-10-09 06:00:00 16.4 0 Calma 2 Sudeste 0.2 -- -- 97
2020-10-09 05:00:00 16.4 0 Calma 2 Este 0.2 -- -- 97
2020-10-09 04:00:00 16.5 0 Calma 2 Sudoeste 0 -- -- 97
2020-10-09 03:00:00 16.6 0 Calma -- -- 0 -- -- 97
2020-10-09 02:00:00 16.6 0 Calma 0 Calma 0 -- -- 96
2020-10-09 01:00:00 16.8 0 Calma -- -- 0 -- -- 95
2020-10-09 00:00:00 16.9 0 Calma 4 Sudeste 0 -- -- 94
2020-10-08 23:00:00 17.1 0 Calma 2 Sur 0 -- -- 93
2020-10-08 22:00:00 17.4 0 Calma 9 Este 0 -- -- 91
2020-10-08 21:00:00 17.9 2 Este 11 Este 0 -- -- 88
2020-10-08 20:00:00 18.5 0 Calma 9 Nordeste 0 -- -- 88
2020-10-08 19:00:00 19.9 3 Sudeste 12 Este 0 -- -- 82
2020-10-08 18:00:00 21 3 Este 13 Nordeste 0 -- -- 80
2020-10-08 17:00:00 21.3 4 Este 15 Este 0 -- -- 78
2020-10-08 16:00:00 22.2 4 Este 13 Nordeste 0 -- -- 75
2020-10-08 15:00:00 22.3 5 Este 12 Este 0 -- -- 75
2020-10-08 14:00:00 22.3 3 Este 8 Este 0 -- -- 71
2020-10-08 13:00:00 20.7 4 Sur 6 Sur 0 -- -- 81
2020-10-08 12:00:00 18.5 0 Calma 4 Oeste 0 -- -- 82
2020-10-08 11:00:00 15.5 0 Calma 3 Norte 0 -- -- 94
2020-10-08 10:00:00 12.8 0 Calma 3 Oeste 0 -- -- 99
2020-10-08 09:00:00 12.6 0 Calma 6 Noroeste 0 -- -- 99
2020-10-08 08:00:00 13 0 Calma 5 Oeste 0 -- -- 99
2020-10-08 07:00:00 13.6 0 Calma 5 Oeste 0 -- -- 99
2020-10-08 06:00:00 14 0 Calma 5 Oeste 0 -- -- 99
2020-10-08 05:00:00 14.3 0 Calma 4 Oeste 0 -- -- 98
2020-10-08 04:00:00 14.5 3 Oeste 4 Sudoeste 0 -- -- 98
2020-10-08 03:00:00 15.1 0 Calma 3 Oeste 0 -- -- 97
2020-10-08 02:00:00 15.6 2 Oeste 4 Oeste 0 -- -- 98
2020-10-08 01:00:00 15.8 0 Calma 3 Oeste 0 -- -- 98
2020-10-08 00:00:00 16 0 Calma 2 Sudoeste 0 -- -- 97
2020-10-07 23:00:00 16.1 0 Calma 5 Oeste 0 -- -- 97
2020-10-07 22:00:00 16.5 0 Calma 3 Sudoeste 0 -- -- 96
2020-10-07 21:00:00 16.9 0 Calma 2 Sur 0 -- -- 95
2020-10-07 20:00:00 17.4 0 Calma 2 Norte 0 -- -- 94
2020-10-07 19:00:00 18 0 Calma 7 Noroeste 0.2 -- -- 92
2020-10-07 18:00:00 18.6 0 Calma 9 Oeste 0 -- -- 89
2020-10-07 17:00:00 19.1 3 Noroeste 15 Norte 0 -- -- 85
2020-10-07 16:00:00 19.2 5 Oeste 13 Oeste 0 -- -- 82
2020-10-07 15:00:00 19.5 3 Oeste 10 Sudoeste 0 -- -- 84
2020-10-07 14:00:00 18.2 0 Calma 12 Oeste 0.2 -- -- 92
2020-10-07 13:00:00 17.2 0 Calma 6 Este 1 -- -- 95
2020-10-07 12:00:00 16.8 2 Este 5 Nordeste 0.6 -- -- 97
2020-10-07 11:00:00 16.4 0 Calma 6 Nordeste 0.6 -- -- 97
2020-10-07 10:00:00 15.9 2 Este 8 Este 0.2 -- -- 98
2020-10-07 09:00:00 15.7 2 Sudeste 10 Nordeste 1.2 -- -- 98
2020-10-07 08:00:00 16.1 2 Nordeste 8 Norte 3.2 -- -- 98
2020-10-07 07:00:00 16.4 0 Calma 4 Sudeste 2.6 -- -- 99
2020-10-07 06:00:00 16.1 0 Calma 4 Sudeste 1.6 -- -- 99
2020-10-07 05:00:00 16.1 0 Calma 3 Oeste 0.6 -- -- 98
2020-10-07 04:00:00 16.2 0 Calma 4 Sur 1.2 -- -- 98
2020-10-07 03:00:00 16.2 3 Nordeste 8 Nordeste 0.4 -- -- 97
2020-10-07 02:00:00 16.2 3 Sudoeste 6 Sudoeste 0 -- -- 97
2020-10-07 01:00:00 16.1 3 Sudoeste 7 Nordeste 0 -- -- 97
2020-10-07 00:00:00 16 0 Calma 3 Noroeste 0 -- -- 96
2020-10-06 23:00:00 16.5 0 Calma 6 Este 0 -- -- 94
2020-10-06 22:00:00 17.8 3 Sudeste 13 Oeste 0 -- -- 92
2020-10-06 21:00:00 17.8 2 Sur 8 Oeste 0 -- -- 92
2020-10-06 20:00:00 18.3 4 Oeste 11 Noroeste 0 -- -- 88
2020-10-06 19:00:00 19.8 3 Sur 10 Sudoeste 0 -- -- 81
2020-10-06 18:00:00 19.2 2 Sur 9 Sudoeste 0 -- -- 91
2020-10-06 17:00:00 18.7 0 Calma 18 Oeste 0 -- -- 92
2020-10-06 16:00:00 18.8 0 Calma 14 Oeste 0.2 -- -- 90
2020-10-06 15:00:00 18.8 2 Noroeste 5 Este 0 -- -- 89
2020-10-06 14:00:00 19.5 0 Calma 8 Oeste 0 -- -- 86
2020-10-06 13:00:00 20.9 6 Oeste 13 Noroeste 0 -- -- 80
2020-10-06 12:00:00 19 0 Calma 5 Oeste 0 -- -- 88
2020-10-06 11:00:00 16.9 0 Calma 5 Noroeste 0 -- -- 93
2020-10-06 10:00:00 14.4 0 Calma 4 Nordeste 0 -- -- 98
2020-10-06 09:00:00 13.5 2 Sur 5 Oeste 0.6 -- -- 98
2020-10-06 08:00:00 13.2 0 Calma 3 Noroeste 0 -- -- 97
2020-10-06 07:00:00 13.1 0 Calma 6 Sudeste 0 -- -- 97
2020-10-06 06:00:00 13 0 Calma 4 Oeste 0 -- -- 96
2020-10-06 05:00:00 13.4 0 Calma 5 Sudoeste 0 -- -- 96
2020-10-06 04:00:00 13.5 2 Oeste 7 Oeste 0 -- -- 95
2020-10-06 03:00:00 13.6 2 Oeste 4 Sudoeste 0 -- -- 95
2020-10-06 02:00:00 13.7 0 Calma 6 Oeste 0 -- -- 94
2020-10-06 01:00:00 13.7 0 Calma 8 Oeste 0 -- -- 93
2020-10-06 00:00:00 13.6 2 Sudeste 6 Sudeste 0 -- -- 93
2020-10-05 23:00:00 13.7 0 Calma 9 Oeste 0 -- -- 92
2020-10-05 22:00:00 13.7 2 Sudoeste 5 Oeste 0 -- -- 92
2020-10-05 21:00:00 14 0 Calma 4 Oeste 0 -- -- 89
2020-10-05 20:00:00 15 0 Calma 7 Sudeste 0 -- -- 84
2020-10-05 19:00:00 17.1 0 Calma 15 Oeste 0 -- -- 75
2020-10-05 18:00:00 19.4 8 Oeste 20 Oeste 0 -- -- 58
2020-10-05 17:00:00 20 7 Oeste 19 Oeste 0 -- -- 58
2020-10-05 16:00:00 19.6 6 Noroeste 18 Oeste 0 -- -- 55
2020-10-05 15:00:00 19.2 10 Noroeste 24 Noroeste 0 -- -- 56
2020-10-05 14:00:00 17.8 10 Noroeste 26 Noroeste 0 -- -- 60
2020-10-05 13:00:00 17.3 6 Noroeste 22 Norte 0 -- -- 65
2020-10-05 12:00:00 14.8 3 Sudeste 23 Oeste 0 -- -- 78
2020-10-05 11:00:00 13.8 6 Oeste 22 Oeste 0 -- -- 83
2020-10-05 10:00:00 11.4 2 Este 6 Nordeste 0 -- -- 98
2020-10-05 09:00:00 10.8 0 Calma 5 Sudeste 0.2 -- -- 98
2020-10-05 08:00:00 10.9 3 Este 8 Sudeste 1.2 -- -- 98
2020-10-05 07:00:00 10.9 2 Sudeste 9 Sur 1.2 -- -- 98
2020-10-05 06:00:00 10.8 3 Oeste 8 Sudeste 0.6 -- -- 97
2020-10-05 05:00:00 10.7 3 Sudeste 6 Este 0.4 -- -- 97
2020-10-05 04:00:00 10.6 0 Calma 6 Sudeste 0.6 -- -- 97
2020-10-05 03:00:00 10.4 3 Sudeste 20 Sudeste 0 -- -- 97
2020-10-05 02:00:00 10.3 2 Este 8 Este 0 -- -- 96
2020-10-05 01:00:00 10.5 4 Este 7 Sudeste 0.6 -- -- 95
2020-10-05 00:00:00 11.6 0 Calma 9 Nordeste 0.6 -- -- 90
2020-10-04 23:00:00 12.9 5 Noroeste 22 Oeste 0 -- -- 73
2020-10-04 22:00:00 11.6 3 Sudeste 15 Noroeste 0.2 -- -- 88
2020-10-04 21:00:00 12.5 2 Sudoeste 21 Oeste 0 -- -- 83
2020-10-04 20:00:00 13.2 5 Norte 30 Noroeste 0 -- -- 72
2020-10-04 19:00:00 13.5 4 Oeste 24 Oeste 0 -- -- 77
2020-10-04 18:00:00 13.9 2 Norte 26 Sudoeste 0.4 -- -- 77
2020-10-04 17:00:00 13.7 10 Oeste 32 Sudoeste 0.8 -- -- 76
2020-10-04 16:00:00 13.9 8 Noroeste 33 Sudoeste 1.2 -- -- 77
2020-10-04 15:00:00 14.1 9 Noroeste 33 Oeste 0.2 -- -- 71
2020-10-04 14:00:00 13.5 6 Norte 42 Sudoeste 1.2 -- -- 74
2020-10-04 13:00:00 13.1 16 Oeste 41 Oeste 0.6 -- -- 77
2020-10-04 12:00:00 12.4 2 Nordeste 23 Sudoeste 1 -- -- 87
2020-10-04 11:00:00 12.2 9 Noroeste 30 Oeste 1.6 -- -- 84
2020-10-04 10:00:00 12.3 11 Oeste 36 Noroeste 1.4 -- -- 83
2020-10-04 09:00:00 12.7 6 Oeste 22 Oeste 0.2 -- -- 84
2020-10-04 08:00:00 11.1 2 Sudeste 13 Norte 1.4 -- -- 97
2020-10-04 07:00:00 10.5 2 Este 9 Oeste 2.4 -- -- 97
2020-10-04 06:00:00 10.4 0 Calma 11 Sudoeste 0.4 -- -- 95
2020-10-04 05:00:00 9.5 3 Oeste 9 Oeste 0.2 -- -- 97
2020-10-04 04:00:00 9.1 3 Sudoeste 6 Sudoeste 0 -- -- 98
2020-10-04 03:00:00 9.1 0 Calma 4 Oeste 0 -- -- 97
2020-10-04 02:00:00 9 2 Sudoeste 5 Sur 0 -- -- 95
2020-10-04 01:00:00 10.2 0 Calma 9 Nordeste 0.2 -- -- 95
2020-10-04 00:00:00 10.7 4 Oeste 10 Oeste 0 -- -- 94
2020-10-03 23:00:00 10.5 0 Calma 8 Sur 0 -- -- 94
2020-10-03 22:00:00 10.6 0 Calma 10 Sur 0 -- -- 92
2020-10-03 21:00:00 11.7 2 Sudoeste 10 Norte 0 -- -- 91
2020-10-03 20:00:00 12.4 0 Calma 25 Oeste 0.2 -- -- 87
2020-10-03 19:00:00 14.7 7 Oeste 35 Noroeste 0 -- -- 72
2020-10-03 18:00:00 17.1 4 Oeste 30 Sudoeste 0 -- -- 61
2020-10-03 17:00:00 16.8 3 Oeste 25 Oeste 0 -- -- 61
2020-10-03 16:00:00 15.5 14 Oeste 36 Oeste 0 -- -- 70
2020-10-03 15:00:00 14 4 Sur 30 Oeste 0.4 -- -- 81
2020-10-03 14:00:00 14.8 10 Oeste 47 Noroeste 0 -- -- 71
2020-10-03 13:00:00 16 13 Noroeste 45 Sudoeste 0 -- -- 61
2020-10-03 12:00:00 15.2 13 Oeste 39 Norte 0.2 -- -- 65
2020-10-03 11:00:00 12.7 9 Noroeste 40 Oeste 0.6 -- -- 80
2020-10-03 10:00:00 12.1 17 Oeste 44 Oeste 2.4 -- -- 82
2020-10-03 09:00:00 11.5 11 Noroeste 27 Oeste 2.8 -- -- 83
2020-10-03 08:00:00 10.1 5 Sur 43 Sudoeste 5 -- -- 91
2020-10-03 07:00:00 10.8 9 Oeste 54 Oeste 4.8 -- -- 81
2020-10-03 06:00:00 11.2 15 Oeste 46 Sudoeste 4.8 -- -- 78
2020-10-03 05:00:00 11.2 13 Oeste 46 Oeste 4.4 -- -- 80
2020-10-03 04:00:00 12.3 14 Oeste 53 Oeste 0.6 -- -- 75
2020-10-03 03:00:00 12.1 8 Oeste 38 Oeste 0.4 -- -- 78
2020-10-03 02:00:00 11.5 6 Oeste 53 Oeste 1.6 -- -- 82
2020-10-03 01:00:00 11 6 Noroeste 46 Sudoeste 6.2 -- -- 88
2020-10-03 00:00:00 11 3 Noroeste 30 Oeste 5.2 -- -- 90
2020-10-02 23:00:00 11.1 7 Noroeste 44 Oeste 3.4 -- -- 87
2020-10-02 22:00:00 11.5 9 Oeste 39 Oeste 3.8 -- -- 82
2020-10-02 21:00:00 13.3 12 Oeste 38 Noroeste 0 -- -- 60
2020-10-02 20:00:00 12.7 8 Noroeste 31 Oeste 0 -- -- 61
2020-10-02 19:00:00 12.6 7 Oeste 28 Noroeste 0 -- -- 62
2020-10-02 18:00:00 12.5 14 Noroeste 40 Noroeste 0.2 -- -- 64
2020-10-02 17:00:00 12.2 10 Noroeste 31 Oeste 0.8 -- -- 73
2020-10-02 16:00:00 11.1 9 Noroeste 36 Oeste 1.2 -- -- 76
2020-10-02 15:00:00 12.6 8 Noroeste 30 Noroeste 0.2 -- -- 65
2020-10-02 14:00:00 10.9 8 Noroeste 31 Noroeste 0.4 -- -- 71
2020-10-02 13:00:00 10.8 14 Oeste 51 Sudoeste 1.2 -- -- 74
2020-10-02 12:00:00 10.9 9 Oeste 40 Sudoeste 1 -- -- 76
2020-10-02 11:00:00 10.9 9 Oeste 30 Noroeste 1.4 -- -- 78
2020-10-02 10:00:00 11.5 11 Noroeste 39 Noroeste 0.8 -- -- 78
2020-10-02 09:00:00 10.8 9 Noroeste 27 Noroeste 2.6 -- -- 86
2020-10-02 08:00:00 11.4 13 Noroeste 42 Sudoeste 3.6 -- -- 83
2020-10-02 07:00:00 12.9 11 Noroeste 38 Sudoeste 3.8 -- -- 90
2020-10-02 06:00:00 13.6 4 Oeste 22 Noroeste 6 -- -- 91
2020-10-02 05:00:00 14.5 3 Noroeste 8 Oeste 9 -- -- 92
2020-10-02 04:00:00 15.7 4 Sur 36 Noroeste 1.8 -- -- 87
2020-10-02 03:00:00 17 8 Sur 30 Sudoeste 0 -- -- 72
2020-10-02 02:00:00 19.8 18 Sudoeste 45 Sudoeste 0 -- -- 56
2020-10-02 01:00:00 20.8 24 Sudoeste 66 Sudoeste 0 -- -- 50
2020-10-02 00:00:00 21.4 18 Sudoeste 43 Oeste 0 -- -- 48
2020-10-01 23:00:00 21.4 16 Sudoeste 39 Sudoeste 0 -- -- 47
2020-10-01 22:00:00 19.8 11 Sudoeste 51 Oeste 0 -- -- 51
2020-10-01 21:00:00 14.2 5 Sudoeste 14 Nordeste 0 -- -- 87
2020-10-01 20:00:00 14.9 3 Sudeste 10 Este 0 -- -- 87
2020-10-01 19:00:00 16.5 0 Calma 4 Sur 0 -- -- 85
2020-10-01 18:00:00 17 0 Calma 5 Oeste 0 -- -- 85
2020-10-01 17:00:00 17.5 3 Norte 12 Oeste 0 -- -- 75
2020-10-01 16:00:00 17.4 6 Oeste 17 Noroeste 0 -- -- 74
2020-10-01 15:00:00 17.2 3 Oeste 9 Sur 0 -- -- 75
2020-10-01 14:00:00 16.2 3 Oeste 14 Oeste 0 -- -- 86
2020-10-01 13:00:00 16.5 7 Oeste 14 Sudoeste 0 -- -- 88
2020-10-01 12:00:00 15.9 5 Oeste 13 Oeste 0 -- -- 87
2020-10-01 11:00:00 14.7 0 Calma 10 Oeste 0.4 -- -- 96
2020-10-01 10:00:00 14.1 6 Noroeste 17 Oeste 2.2 -- -- 95
2020-10-01 09:00:00 14.3 0 Calma 13 Noroeste 1.4 -- -- 97
2020-10-01 08:00:00 14.3 3 Oeste 17 Oeste 1.2 -- -- 96
2020-10-01 07:00:00 14.5 8 Oeste 17 Oeste 2.4 -- -- 97
2020-10-01 06:00:00 13.9 0 Calma 6 Oeste 0 -- -- 97
2020-10-01 05:00:00 13.6 3 Sudoeste 9 Oeste 0 -- -- 97
2020-10-01 04:00:00 13.2 2 Este 5 Oeste 0 -- -- 97
2020-10-01 03:00:00 13.3 2 Oeste 6 Oeste 0 -- -- 96
2020-10-01 02:00:00 13.4 0 Calma 4 Oeste 0 -- -- 96
2020-10-01 01:00:00 13.4 0 Calma 4 Sudoeste 0 -- -- 95
2020-10-01 00:00:00 13.6 0 Calma 5 Sudoeste 0 -- -- 94
2020-09-30 23:00:00 14.7 0 Calma 12 Nordeste 0 -- -- 90
2020-09-30 22:00:00 16.5 2 Este 5 Este 0 -- -- 87
2020-09-30 21:00:00 17.3 3 Oeste 5 Sudoeste 0 -- -- 85
2020-09-30 20:00:00 18.1 0 Calma 6 Este 0 -- -- 80
2020-09-30 19:00:00 18.8 4 Oeste 15 Oeste 0 -- -- 74
2020-09-30 18:00:00 20.2 6 Noroeste 14 Noroeste 0 -- -- 70
2020-09-30 17:00:00 22.5 6 Nordeste 23 Este 0 -- -- 65
2020-09-30 16:00:00 23.8 9 Este 21 Nordeste 0 -- -- 64
2020-09-30 15:00:00 23.6 8 Este 16 Nordeste 0 -- -- 61
2020-09-30 14:00:00 22.9 8 Este 13 Nordeste 0 -- -- 62
2020-09-30 13:00:00 21 0 Calma 8 Nordeste 0 -- -- 63
2020-09-30 12:00:00 17.5 0 Calma 4 Oeste 0 -- -- 77
2020-09-30 11:00:00 13.5 0 Calma 4 Sudeste 0 -- -- 89
2020-09-30 10:00:00 9.7 0 Calma 2 Este 0 -- -- 100
2020-09-30 09:00:00 7.8 0 Calma 4 Oeste 0 -- -- 99
2020-09-30 08:00:00 7.8 0 Calma 6 Oeste 0 -- -- 98
2020-09-30 07:00:00 8.3 0 Calma 4 Oeste 0 -- -- 98
2020-09-30 06:00:00 8.6 0 Calma 3 Este 0 -- -- 98
2020-09-30 05:00:00 8.8 0 Calma 4 Oeste 0 -- -- 98
2020-09-30 04:00:00 9 2 Sudoeste 6 Sudoeste 0 -- -- 97
2020-09-30 03:00:00 9 0 Calma 2 Sur 0 -- -- 97
2020-09-30 02:00:00 9.4 0 Calma 3 Oeste 0 -- -- 96
2020-09-30 01:00:00 9.8 0 Calma 3 Oeste 0 -- -- 95
2020-09-30 00:00:00 10.5 0 Calma 2 Sur 0 -- -- 95